sensor_id;sensor_type;location;lat;lon;timestamp;pressure;altitude;pressure_sealevel;temperature;humidity
54321;BME280;40219;55.838;-4.266;2022-07-01T00:01:54;100880.72;;;17.49;40.64
54321;BME280;40219;55.838;-4.266;2022-07-01T00:04:22;100876.44;;;17.43;40.82
54321;BME280;40219;55.838;-4.266;2022-07-01T00:06:50;100878.85;;;17.70;40.88
54321;BME280;40219;55.838;-4.266;2022-07-01T00:09:18;100878.72;;;17.70;41.00
54321;BME280;40219;55.838;-4.266;2022-07-01T00:11:45;100877.69;;;17.50;40.85
54321;BME280;40219;55.838;-4.266;2022-07-01T00:14:14;100875.27;;;17.74;40.89
54321;BME280;40219;55.838;-4.266;2022-07-01T00:16:42;100873.00;;;17.53;40.98
54321;BME280;40219;55.838;-4.266;2022-07-01T00:19:09;100875.16;;;17.64;40.96
54321;BME280;40219;55.838;-4.266;2022-07-01T00:21:37;100876.34;;;17.48;40.69
54321;BME280;40219;55.838;-4.266;2022-07-01T00:24:05;100877.89;;;17.50;40.77
54321;BME280;40219;55.838;-4.266;2022-07-01T00:26:33;100877.21;;;17.78;40.65
54321;BME280;40219;55.838;-4.266;2022-07-01T00:29:00;100877.29;;;17.61;40.62
54321;BME280;40219;55.838;-4.266;2022-07-01T00:31:28;100880.52;;;17.95;40.51
54321;BME280;40219;55.838;-4.266;2022-07-01T00:33:56;100880.63;;;17.76;40.31
54321;BME280;40219;55.838;-4.266;2022-07-01T00:36:24;100880.66;;;18.07;40.32
54321;BME280;40219;55.838;-4.266;2022-07-01T00:38:52;100877.33;;;18.15;40.15
54321;BME280;40219;55.838;-4.266;2022-07-01T00:41:20;100877.01;;;17.90;39.99
54321;BME280;40219;55.838;-4.266;2022-07-01T00:43:47;100875.49;;;18.10;40.01
54321;BME280;40219;55.838;-4.266;2022-07-01T00:46:16;100878.13;;;18.02;40.04
54321;BME280;40219;55.838;-4.266;2022-07-01T00:48:44;100877.64;;;17.70;40.18
54321;BME280;40219;55.838;-4.266;2022-07-01T00:51:12;100876.41;;;17.72;40.13
54321;BME280;40219;55.838;-4.266;2022-07-01T00:53:40;100871.24;;;17.94;40.15
54321;BME280;40219;55.838;-4.266;2022-07-01T00:56:08;100872.09;;;17.44;40.13
54321;BME280;40219;55.838;-4.266;2022-07-01T00:58:35;100870.60;;;17.36;40.14
54321;BME280;40219;55.838;-4.266;2022-07-01T01:01:02;100868.90;;;17.58;40.34
54321;BME280;40219;55.838;-4.266;2022-07-01T01:03:30;100861.88;;;17.84;40.32
54321;BME280;40219;55.838;-4.266;2022-07-01T01:05:58;100855.39;;;17.91;40.16
54321;BME280;40219;55.838;-4.266;2022-07-01T01:08:26;100849.28;;;17.89;40.06
54321;BME280;40219;55.838;-4.266;2022-07-01T01:10:54;100848.15;;;17.92;40.04
54321;BME280;40219;55.838;-4.266;2022-07-01T01:13:22;100854.03;;;17.85;39.98
54321;BME280;40219;55.838;-4.266;2022-07-01T01:15:50;100861.02;;;17.78;40.08
54321;BME280;40219;55.838;-4.266;2022-07-01T01:18:18;100866.68;;;17.76;40.15
54321;BME280;40219;55.838;-4.266;2022-07-01T01:20:46;100867.68;;;17.71;40.08
54321;BME280;40219;55.838;-4.266;2022-07-01T01:23:14;100870.57;;;17.64;40.10
54321;BME280;40219;55.838;-4.266;2022-07-01T01:25:41;100867.25;;;17.55;40.20
54321;BME280;40219;55.838;-4.266;2022-07-01T01:28:10;100866.84;;;17.49;40.26
54321;BME280;40219;55.838;-4.266;2022-07-01T01:30:38;100861.76;;;17.18;40.34
54321;BME280;40219;55.838;-4.266;2022-07-01T01:33:06;100866.84;;;17.34;40.41
54321;BME280;40219;55.838;-4.266;2022-07-01T01:35:34;100869.01;;;17.05;40.46
54321;BME280;40219;55.838;-4.266;2022-07-01T01:38:02;100869.54;;;17.25;40.48
54321;BME280;40219;55.838;-4.266;2022-07-01T01:40:30;100872.85;;;17.21;40.47
54321;BME280;40219;55.838;-4.266;2022-07-01T01:42:57;100881.14;;;17.19;40.50
54321;BME280;40219;55.838;-4.266;2022-07-01T01:45:25;100882.22;;;17.22;40.44
54321;BME280;40219;55.838;-4.266;2022-07-01T01:47:53;100885.21;;;17.17;40.40
54321;BME280;40219;55.838;-4.266;2022-07-01T01:50:21;100885.82;;;17.40;40.44
54321;BME280;40219;55.838;-4.266;2022-07-01T01:52:49;100889.28;;;17.18;40.50
54321;BME280;40219;55.838;-4.266;2022-07-01T01:55:16;100890.52;;;17.23;40.22
54321;BME280;40219;55.838;-4.266;2022-07-01T01:57:44;100894.73;;;17.20;40.30
54321;BME280;40219;55.838;-4.266;2022-07-01T02:00:12;100891.34;;;17.24;40.43
54321;BME280;40219;55.838;-4.266;2022-07-01T02:02:40;100885.93;;;17.33;40.29
54321;BME280;40219;55.838;-4.266;2022-07-01T02:05:10;100880.98;;;17.35;40.22
54321;BME280;40219;55.838;-4.266;2022-07-01T02:07:38;100882.57;;;17.61;40.21
54321;BME280;40219;55.838;-4.266;2022-07-01T02:10:06;100880.29;;;17.32;40.18
54321;BME280;40219;55.838;-4.266;2022-07-01T02:12:34;100878.71;;;17.54;40.32
54321;BME280;40219;55.838;-4.266;2022-07-01T02:15:02;100879.97;;;17.24;40.58
54321;BME280;40219;55.838;-4.266;2022-07-01T02:17:30;100877.67;;;17.29;40.44
54321;BME280;40219;55.838;-4.266;2022-07-01T02:19:58;100881.09;;;17.28;40.33
54321;BME280;40219;55.838;-4.266;2022-07-01T02:22:25;100881.79;;;17.25;40.52
54321;BME280;40219;55.838;-4.266;2022-07-01T02:24:52;100881.28;;;17.50;40.80
54321;BME280;40219;55.838;-4.266;2022-07-01T02:27:20;100878.04;;;17.25;40.89
54321;BME280;40219;55.838;-4.266;2022-07-01T02:29:48;100874.78;;;17.21;40.75
54321;BME280;40219;55.838;-4.266;2022-07-01T02:32:16;100872.60;;;17.21;40.75
54321;BME280;40219;55.838;-4.266;2022-07-01T02:34:43;100869.09;;;17.20;40.90
54321;BME280;40219;55.838;-4.266;2022-07-01T02:37:11;100865.77;;;17.19;40.87
54321;BME280;40219;55.838;-4.266;2022-07-01T02:39:39;100865.70;;;16.98;41.05
54321;BME280;40219;55.838;-4.266;2022-07-01T02:42:06;100871.33;;;17.03;41.00
54321;BME280;40219;55.838;-4.266;2022-07-01T02:44:34;100871.15;;;17.25;40.79
54321;BME280;40219;55.838;-4.266;2022-07-01T02:47:01;100873.39;;;17.24;40.60
54321;BME280;40219;55.838;-4.266;2022-07-01T02:49:28;100873.37;;;17.12;40.72
54321;BME280;40219;55.838;-4.266;2022-07-01T02:51:55;100874.92;;;16.99;40.71
54321;BME280;40219;55.838;-4.266;2022-07-01T02:54:22;100870.46;;;17.05;40.98
54321;BME280;40219;55.838;-4.266;2022-07-01T02:56:49;100868.41;;;16.78;41.43
54321;BME280;40219;55.838;-4.266;2022-07-01T02:59:16;100867.29;;;17.16;41.18
54321;BME280;40219;55.838;-4.266;2022-07-01T03:01:43;100861.72;;;17.21;41.19
54321;BME280;40219;55.838;-4.266;2022-07-01T03:04:10;100852.87;;;17.02;41.01
54321;BME280;40219;55.838;-4.266;2022-07-01T03:06:37;100850.52;;;17.06;40.93
54321;BME280;40219;55.838;-4.266;2022-07-01T03:09:05;100849.27;;;17.37;40.85
54321;BME280;40219;55.838;-4.266;2022-07-01T03:11:32;100851.82;;;17.19;40.83
54321;BME280;40219;55.838;-4.266;2022-07-01T03:14:00;100853.52;;;17.24;40.51
54321;BME280;40219;55.838;-4.266;2022-07-01T03:16:26;100855.90;;;17.19;40.68
54321;BME280;40219;55.838;-4.266;2022-07-01T03:18:54;100857.87;;;16.99;40.79
54321;BME280;40219;55.838;-4.266;2022-07-01T03:21:21;100856.97;;;17.28;40.71
54321;BME280;40219;55.838;-4.266;2022-07-01T03:23:48;100854.82;;;17.31;40.56
54321;BME280;40219;55.838;-4.266;2022-07-01T03:26:15;100858.20;;;17.39;40.67
54321;BME280;40219;55.838;-4.266;2022-07-01T03:28:42;100862.82;;;17.60;40.41
54321;BME280;40219;55.838;-4.266;2022-07-01T03:31:10;100863.06;;;17.38;40.66
54321;BME280;40219;55.838;-4.266;2022-07-01T03:33:37;100858.59;;;17.69;40.67
54321;BME280;40219;55.838;-4.266;2022-07-01T03:36:04;100861.29;;;17.47;40.64
54321;BME280;40219;55.838;-4.266;2022-07-01T03:38:31;100859.93;;;17.48;40.61
54321;BME280;40219;55.838;-4.266;2022-07-01T03:40:58;100859.94;;;17.35;40.49
54321;BME280;40219;55.838;-4.266;2022-07-01T03:43:25;100861.84;;;17.27;40.58
54321;BME280;40219;55.838;-4.266;2022-07-01T03:45:52;100857.33;;;17.39;40.68
54321;BME280;40219;55.838;-4.266;2022-07-01T03:48:19;100852.53;;;17.37;40.74
54321;BME280;40219;55.838;-4.266;2022-07-01T03:50:46;100851.86;;;17.08;41.00
54321;BME280;40219;55.838;-4.266;2022-07-01T03:53:13;100854.06;;;17.35;41.01
54321;BME280;40219;55.838;-4.266;2022-07-01T03:55:41;100856.00;;;17.25;40.82
54321;BME280;40219;55.838;-4.266;2022-07-01T03:58:09;100860.23;;;17.38;40.82
54321;BME280;40219;55.838;-4.266;2022-07-01T04:00:38;100859.58;;;17.31;40.81
54321;BME280;40219;55.838;-4.266;2022-07-01T04:03:07;100856.95;;;17.17;40.93
54321;BME280;40219;55.838;-4.266;2022-07-01T04:05:35;100854.25;;;17.08;41.35
54321;BME280;40219;55.838;-4.266;2022-07-01T04:08:04;100859.45;;;17.20;41.31
54321;BME280;40219;55.838;-4.266;2022-07-01T04:10:33;100860.96;;;17.00;40.99
54321;BME280;40219;55.838;-4.266;2022-07-01T04:13:01;100861.23;;;17.24;41.06
54321;BME280;40219;55.838;-4.266;2022-07-01T04:15:29;100866.73;;;17.24;40.82
54321;BME280;40219;55.838;-4.266;2022-07-01T04:17:56;100864.59;;;17.16;40.93
54321;BME280;40219;55.838;-4.266;2022-07-01T04:20:24;100862.03;;;16.93;40.79
54321;BME280;40219;55.838;-4.266;2022-07-01T04:22:52;100856.85;;;16.90;40.68
54321;BME280;40219;55.838;-4.266;2022-07-01T04:25:20;100855.58;;;16.86;40.61
54321;BME280;40219;55.838;-4.266;2022-07-01T04:27:48;100853.37;;;16.93;40.70
54321;BME280;40219;55.838;-4.266;2022-07-01T04:30:15;100852.15;;;16.67;40.84
54321;BME280;40219;55.838;-4.266;2022-07-01T04:32:43;100851.28;;;16.81;40.83
54321;BME280;40219;55.838;-4.266;2022-07-01T04:35:11;100852.33;;;16.76;41.03
54321;BME280;40219;55.838;-4.266;2022-07-01T04:37:39;100855.38;;;16.65;41.08
54321;BME280;40219;55.838;-4.266;2022-07-01T04:40:08;100858.39;;;16.63;41.18
54321;BME280;40219;55.838;-4.266;2022-07-01T04:42:35;100859.07;;;16.38;41.18
54321;BME280;40219;55.838;-4.266;2022-07-01T04:45:04;100859.40;;;16.61;41.49
54321;BME280;40219;55.838;-4.266;2022-07-01T04:47:31;100861.42;;;16.65;41.35
54321;BME280;40219;55.838;-4.266;2022-07-01T04:49:59;100862.63;;;16.47;41.38
54321;BME280;40219;55.838;-4.266;2022-07-01T04:52:27;100861.03;;;16.80;41.39
54321;BME280;40219;55.838;-4.266;2022-07-01T04:54:54;100858.55;;;16.70;41.11
54321;BME280;40219;55.838;-4.266;2022-07-01T04:57:21;100865.34;;;16.51;41.01
54321;BME280;40219;55.838;-4.266;2022-07-01T04:59:49;100866.98;;;16.84;40.85
54321;BME280;40219;55.838;-4.266;2022-07-01T05:02:16;100867.62;;;16.66;40.91
54321;BME280;40219;55.838;-4.266;2022-07-01T05:04:43;100871.14;;;16.76;40.65
54321;BME280;40219;55.838;-4.266;2022-07-01T05:07:10;100874.08;;;16.88;40.56
54321;BME280;40219;55.838;-4.266;2022-07-01T05:09:37;100874.13;;;17.05;40.40
54321;BME280;40219;55.838;-4.266;2022-07-01T05:12:05;100876.62;;;17.49;40.07
54321;BME280;40219;55.838;-4.266;2022-07-01T05:14:32;100881.09;;;17.47;40.02
54321;BME280;40219;55.838;-4.266;2022-07-01T05:17:00;100881.42;;;17.77;39.51
54321;BME280;40219;55.838;-4.266;2022-07-01T05:19:28;100882.33;;;17.77;39.62
54321;BME280;40219;55.838;-4.266;2022-07-01T05:21:55;100883.63;;;17.91;39.56
54321;BME280;40219;55.838;-4.266;2022-07-01T05:24:24;100881.83;;;17.78;39.22
54321;BME280;40219;55.838;-4.266;2022-07-01T05:26:51;100884.78;;;17.99;39.29
54321;BME280;40219;55.838;-4.266;2022-07-01T05:29:19;100884.34;;;18.31;38.93
54321;BME280;40219;55.838;-4.266;2022-07-01T05:31:47;100887.48;;;18.12;38.33
54321;BME280;40219;55.838;-4.266;2022-07-01T05:34:15;100888.59;;;18.23;38.14
54321;BME280;40219;55.838;-4.266;2022-07-01T05:36:42;100889.00;;;18.35;38.19
54321;BME280;40219;55.838;-4.266;2022-07-01T05:39:10;100892.51;;;18.52;38.07
54321;BME280;40219;55.838;-4.266;2022-07-01T05:41:38;100893.84;;;18.67;37.74
54321;BME280;40219;55.838;-4.266;2022-07-01T05:44:06;100895.67;;;19.30;37.74
54321;BME280;40219;55.838;-4.266;2022-07-01T05:46:33;100894.71;;;19.01;37.43
54321;BME280;40219;55.838;-4.266;2022-07-01T05:49:01;100892.02;;;18.90;37.31
54321;BME280;40219;55.838;-4.266;2022-07-01T05:51:28;100887.71;;;19.14;36.95
54321;BME280;40219;55.838;-4.266;2022-07-01T05:53:55;100887.93;;;18.89;37.13
54321;BME280;40219;55.838;-4.266;2022-07-01T05:56:23;100886.00;;;19.31;36.90
54321;BME280;40219;55.838;-4.266;2022-07-01T05:58:51;100881.86;;;19.33;36.88
54321;BME280;40219;55.838;-4.266;2022-07-01T06:01:19;100879.88;;;19.39;36.47
54321;BME280;40219;55.838;-4.266;2022-07-01T06:03:47;100876.33;;;19.13;36.57
54321;BME280;40219;55.838;-4.266;2022-07-01T06:06:14;100876.64;;;19.06;36.08
54321;BME280;40219;55.838;-4.266;2022-07-01T06:08:42;100877.00;;;19.16;36.49
54321;BME280;40219;55.838;-4.266;2022-07-01T06:11:10;100874.71;;;19.03;35.84
54321;BME280;40219;55.838;-4.266;2022-07-01T06:13:39;100875.34;;;19.53;36.20
54321;BME280;40219;55.838;-4.266;2022-07-01T06:16:07;100877.73;;;19.14;35.85
54321;BME280;40219;55.838;-4.266;2022-07-01T06:18:35;100875.79;;;19.45;35.93
54321;BME280;40219;55.838;-4.266;2022-07-01T06:21:03;100877.71;;;19.26;35.73
54321;BME280;40219;55.838;-4.266;2022-07-01T06:23:30;100879.32;;;19.39;35.59
54321;BME280;40219;55.838;-4.266;2022-07-01T06:25:58;100880.79;;;19.46;35.53
54321;BME280;40219;55.838;-4.266;2022-07-01T06:28:26;100883.42;;;19.48;35.81
54321;BME280;40219;55.838;-4.266;2022-07-01T06:30:54;100881.86;;;19.49;35.71
54321;BME280;40219;55.838;-4.266;2022-07-01T06:33:22;100881.88;;;19.55;35.56
54321;BME280;40219;55.838;-4.266;2022-07-01T06:35:49;100883.20;;;19.60;35.58
54321;BME280;40219;55.838;-4.266;2022-07-01T06:38:16;100881.31;;;19.60;35.44
54321;BME280;40219;55.838;-4.266;2022-07-01T06:40:43;100879.75;;;19.85;35.51
54321;BME280;40219;55.838;-4.266;2022-07-01T06:43:10;100876.85;;;19.77;35.49
54321;BME280;40219;55.838;-4.266;2022-07-01T06:45:37;100880.46;;;19.64;35.65
54321;BME280;40219;55.838;-4.266;2022-07-01T06:48:05;100881.10;;;19.58;35.74
54321;BME280;40219;55.838;-4.266;2022-07-01T06:50:32;100879.76;;;19.34;35.56
54321;BME280;40219;55.838;-4.266;2022-07-01T06:52:59;100876.50;;;19.48;35.68
54321;BME280;40219;55.838;-4.266;2022-07-01T06:55:26;100882.55;;;19.45;35.47
54321;BME280;40219;55.838;-4.266;2022-07-01T06:57:54;100882.68;;;19.83;35.20
54321;BME280;40219;55.838;-4.266;2022-07-01T07:00:21;100886.77;;;19.91;35.03
54321;BME280;40219;55.838;-4.266;2022-07-01T07:02:49;100889.86;;;19.77;34.68
54321;BME280;40219;55.838;-4.266;2022-07-01T07:05:16;100894.64;;;19.83;34.73
54321;BME280;40219;55.838;-4.266;2022-07-01T07:07:44;100896.91;;;19.93;34.87
54321;BME280;40219;55.838;-4.266;2022-07-01T07:10:11;100896.85;;;20.03;34.48
54321;BME280;40219;55.838;-4.266;2022-07-01T07:12:38;100899.05;;;20.13;34.55
54321;BME280;40219;55.838;-4.266;2022-07-01T07:15:06;100897.70;;;20.37;34.51
54321;BME280;40219;55.838;-4.266;2022-07-01T07:17:32;100895.00;;;20.60;34.20
54321;BME280;40219;55.838;-4.266;2022-07-01T07:19:59;100899.83;;;20.69;33.90
54321;BME280;40219;55.838;-4.266;2022-07-01T07:22:26;100898.73;;;20.49;33.80
54321;BME280;40219;55.838;-4.266;2022-07-01T07:24:53;100899.10;;;20.65;33.89
54321;BME280;40219;55.838;-4.266;2022-07-01T07:27:21;100895.80;;;21.00;33.91
54321;BME280;40219;55.838;-4.266;2022-07-01T07:29:48;100896.11;;;20.86;33.83
54321;BME280;40219;55.838;-4.266;2022-07-01T07:32:15;100894.92;;;21.06;33.55
54321;BME280;40219;55.838;-4.266;2022-07-01T07:34:42;100893.88;;;20.53;33.54
54321;BME280;40219;55.838;-4.266;2022-07-01T07:37:10;100889.21;;;20.58;33.53
54321;BME280;40219;55.838;-4.266;2022-07-01T07:39:37;100887.71;;;21.20;33.58
54321;BME280;40219;55.838;-4.266;2022-07-01T07:42:05;100883.80;;;20.90;33.24
54321;BME280;40219;55.838;-4.266;2022-07-01T07:44:33;100882.88;;;20.97;33.07
54321;BME280;40219;55.838;-4.266;2022-07-01T07:47:01;100883.44;;;20.87;32.78
54321;BME280;40219;55.838;-4.266;2022-07-01T07:49:28;100880.85;;;21.38;33.03
54321;BME280;40219;55.838;-4.266;2022-07-01T07:51:56;100879.19;;;21.04;32.80
54321;BME280;40219;55.838;-4.266;2022-07-01T07:54:24;100876.84;;;21.20;32.35
54321;BME280;40219;55.838;-4.266;2022-07-01T07:56:52;100877.05;;;21.52;32.44
54321;BME280;40219;55.838;-4.266;2022-07-01T07:59:20;100880.17;;;21.73;32.13
54321;BME280;40219;55.838;-4.266;2022-07-01T08:01:48;100879.50;;;22.06;31.84
54321;BME280;40219;55.838;-4.266;2022-07-01T08:04:15;100880.91;;;22.15;31.44
54321;BME280;40219;55.838;-4.266;2022-07-01T08:06:43;100883.02;;;21.88;31.18
54321;BME280;40219;55.838;-4.266;2022-07-01T08:09:11;100882.14;;;22.34;31.08
54321;BME280;40219;55.838;-4.266;2022-07-01T08:11:39;100880.09;;;22.45;31.00
54321;BME280;40219;55.838;-4.266;2022-07-01T08:14:06;100876.73;;;22.38;30.27
54321;BME280;40219;55.838;-4.266;2022-07-01T08:16:35;100874.68;;;22.46;30.38
54321;BME280;40219;55.838;-4.266;2022-07-01T08:19:03;100874.60;;;22.51;30.11
54321;BME280;40219;55.838;-4.266;2022-07-01T08:21:31;100873.76;;;22.64;30.10
54321;BME280;40219;55.838;-4.266;2022-07-01T08:23:58;100874.85;;;22.97;30.09
54321;BME280;40219;55.838;-4.266;2022-07-01T08:26:26;100873.19;;;22.91;30.09
54321;BME280;40219;55.838;-4.266;2022-07-01T08:28:54;100875.52;;;23.36;29.39
54321;BME280;40219;55.838;-4.266;2022-07-01T08:31:22;100875.68;;;23.09;29.15
54321;BME280;40219;55.838;-4.266;2022-07-01T08:33:50;100868.76;;;22.54;29.04
54321;BME280;40219;55.838;-4.266;2022-07-01T08:36:18;100871.35;;;23.34;29.14
54321;BME280;40219;55.838;-4.266;2022-07-01T08:38:45;100866.53;;;23.04;28.76
54321;BME280;40219;55.838;-4.266;2022-07-01T08:41:13;100869.32;;;22.75;28.97
54321;BME280;40219;55.838;-4.266;2022-07-01T08:43:41;100867.21;;;22.32;29.50
54321;BME280;40219;55.838;-4.266;2022-07-01T08:46:09;100866.57;;;22.38;29.41
54321;BME280;40219;55.838;-4.266;2022-07-01T08:48:37;100862.87;;;22.68;29.23
54321;BME280;40219;55.838;-4.266;2022-07-01T08:51:09;100864.32;;;22.99;29.12
54321;BME280;40219;55.838;-4.266;2022-07-01T08:53:36;100864.36;;;22.70;28.61
54321;BME280;40219;55.838;-4.266;2022-07-01T08:56:04;100864.14;;;22.51;28.63
54321;BME280;40219;55.838;-4.266;2022-07-01T08:58:32;100859.10;;;22.46;28.67
54321;BME280;40219;55.838;-4.266;2022-07-01T09:01:21;100857.64;;;22.55;28.77
54321;BME280;40219;55.838;-4.266;2022-07-01T09:03:52;100855.56;;;22.45;28.86
54321;BME280;40219;55.838;-4.266;2022-07-01T09:06:22;100855.69;;;22.47;28.77
54321;BME280;40219;55.838;-4.266;2022-07-01T09:08:50;100859.57;;;22.69;28.59
54321;BME280;40219;55.838;-4.266;2022-07-01T09:11:19;100856.99;;;22.46;28.60
54321;BME280;40219;55.838;-4.266;2022-07-01T09:14:06;100860.15;;;22.68;28.81
54321;BME280;40219;55.838;-4.266;2022-07-01T09:16:41;100860.56;;;22.37;29.11
54321;BME280;40219;55.838;-4.266;2022-07-01T09:19:09;100858.15;;;22.11;29.37
54321;BME280;40219;55.838;-4.266;2022-07-01T09:21:36;100860.04;;;22.03;28.98
54321;BME280;40219;55.838;-4.266;2022-07-01T09:24:07;100855.03;;;22.16;29.17
54321;BME280;40219;55.838;-4.266;2022-07-01T09:26:52;100857.75;;;22.55;29.16
54321;BME280;40219;55.838;-4.266;2022-07-01T09:29:20;100861.51;;;22.34;28.93
54321;BME280;40219;55.838;-4.266;2022-07-01T09:31:52;100863.07;;;22.95;28.62
54321;BME280;40219;55.838;-4.266;2022-07-01T09:34:21;100857.80;;;22.64;28.59
54321;BME280;40219;55.838;-4.266;2022-07-01T09:36:55;100856.81;;;22.88;28.21
54321;BME280;40219;55.838;-4.266;2022-07-01T09:39:23;100855.73;;;23.89;27.69
54321;BME280;40219;55.838;-4.266;2022-07-01T09:41:56;100854.59;;;24.18;27.12
54321;BME280;40219;55.838;-4.266;2022-07-01T09:44:24;100854.25;;;24.41;26.63
54321;BME280;40219;55.838;-4.266;2022-07-01T09:46:53;100855.20;;;25.45;25.54
54321;BME280;40219;55.838;-4.266;2022-07-01T09:49:21;100856.87;;;26.37;24.94
54321;BME280;40219;55.838;-4.266;2022-07-01T09:51:49;100852.05;;;26.23;23.73
54321;BME280;40219;55.838;-4.266;2022-07-01T09:54:18;100852.67;;;26.03;23.61
54321;BME280;40219;55.838;-4.266;2022-07-01T09:56:45;100850.72;;;26.10;23.81
54321;BME280;40219;55.838;-4.266;2022-07-01T09:59:13;100847.59;;;26.21;23.73
54321;BME280;40219;55.838;-4.266;2022-07-01T10:01:44;100848.36;;;26.15;23.69
54321;BME280;40219;55.838;-4.266;2022-07-01T10:04:13;100845.82;;;25.98;23.66
54321;BME280;40219;55.838;-4.266;2022-07-01T10:06:53;100849.26;;;25.64;23.61
54321;BME280;40219;55.838;-4.266;2022-07-01T10:09:42;100844.98;;;25.43;23.87
54321;BME280;40219;55.838;-4.266;2022-07-01T10:12:30;100838.12;;;25.55;23.16
54321;BME280;40219;55.838;-4.266;2022-07-01T10:14:59;100851.63;;;25.17;23.62
54321;BME280;40219;55.838;-4.266;2022-07-01T10:17:28;100847.25;;;24.95;24.20
54321;BME280;40219;55.838;-4.266;2022-07-01T10:19:56;100845.21;;;24.61;24.03
54321;BME280;40219;55.838;-4.266;2022-07-01T10:22:26;100842.34;;;24.95;24.27
54321;BME280;40219;55.838;-4.266;2022-07-01T10:24:54;100845.27;;;24.82;24.29
54321;BME280;40219;55.838;-4.266;2022-07-01T10:27:23;100848.64;;;24.84;23.85
54321;BME280;40219;55.838;-4.266;2022-07-01T10:30:12;100844.51;;;25.21;23.95
54321;BME280;40219;55.838;-4.266;2022-07-01T10:32:46;100843.11;;;25.33;24.35
54321;BME280;40219;55.838;-4.266;2022-07-01T10:35:14;100844.59;;;25.24;24.06
54321;BME280;40219;55.838;-4.266;2022-07-01T10:37:58;100847.63;;;25.36;23.75
54321;BME280;40219;55.838;-4.266;2022-07-01T10:40:43;100848.22;;;25.43;23.43
54321;BME280;40219;55.838;-4.266;2022-07-01T10:43:14;100849.43;;;26.03;23.07
54321;BME280;40219;55.838;-4.266;2022-07-01T10:45:42;100851.07;;;26.21;22.19
54321;BME280;40219;55.838;-4.266;2022-07-01T10:48:19;100847.99;;;25.93;21.85
54321;BME280;40219;55.838;-4.266;2022-07-01T10:50:47;100852.40;;;25.91;21.97
54321;BME280;40219;55.838;-4.266;2022-07-01T10:53:14;100849.50;;;25.78;22.05
54321;BME280;40219;55.838;-4.266;2022-07-01T10:55:45;100846.74;;;26.26;22.00
54321;BME280;40219;55.838;-4.266;2022-07-01T10:58:13;100844.09;;;26.07;21.76
54321;BME280;40219;55.838;-4.266;2022-07-01T11:00:42;100842.94;;;26.05;21.98
54321;BME280;40219;55.838;-4.266;2022-07-01T11:03:18;100845.56;;;26.20;22.13
54321;BME280;40219;55.838;-4.266;2022-07-01T11:05:48;100841.49;;;26.24;21.75
54321;BME280;40219;55.838;-4.266;2022-07-01T11:08:17;100844.77;;;26.35;21.56
54321;BME280;40219;55.838;-4.266;2022-07-01T11:10:50;100847.97;;;26.72;21.47
54321;BME280;40219;55.838;-4.266;2022-07-01T11:13:19;100842.61;;;26.41;20.95
54321;BME280;40219;55.838;-4.266;2022-07-01T11:15:48;100844.79;;;26.38;21.23
54321;BME280;40219;55.838;-4.266;2022-07-01T11:18:16;100832.28;;;26.14;21.69
54321;BME280;40219;55.838;-4.266;2022-07-01T11:20:46;100834.50;;;26.32;21.84
54321;BME280;40219;55.838;-4.266;2022-07-01T11:23:14;100832.30;;;26.68;21.66
54321;BME280;40219;55.838;-4.266;2022-07-01T11:25:42;100835.20;;;26.83;21.45
54321;BME280;40219;55.838;-4.266;2022-07-01T11:28:11;100835.20;;;26.89;21.47
54321;BME280;40219;55.838;-4.266;2022-07-01T11:30:41;100829.30;;;26.59;20.90
54321;BME280;40219;55.838;-4.266;2022-07-01T11:33:09;100828.50;;;26.51;21.00
54321;BME280;40219;55.838;-4.266;2022-07-01T11:35:36;100826.46;;;27.01;21.04
54321;BME280;40219;55.838;-4.266;2022-07-01T11:38:06;100827.47;;;27.45;20.88
54321;BME280;40219;55.838;-4.266;2022-07-01T11:40:33;100832.88;;;26.73;21.01
54321;BME280;40219;55.838;-4.266;2022-07-01T11:43:00;100832.43;;;26.52;21.28
54321;BME280;40219;55.838;-4.266;2022-07-01T11:45:27;100833.90;;;26.55;21.22
54321;BME280;40219;55.838;-4.266;2022-07-01T11:47:54;100831.84;;;26.69;20.61
54321;BME280;40219;55.838;-4.266;2022-07-01T11:50:21;100826.58;;;26.11;20.74
54321;BME280;40219;55.838;-4.266;2022-07-01T11:52:53;100828.26;;;26.73;21.13
54321;BME280;40219;55.838;-4.266;2022-07-01T11:55:21;100827.45;;;26.64;20.90
54321;BME280;40219;55.838;-4.266;2022-07-01T11:57:50;100828.46;;;26.29;21.44
54321;BME280;40219;55.838;-4.266;2022-07-01T12:00:18;100827.66;;;26.68;20.98
54321;BME280;40219;55.838;-4.266;2022-07-01T12:02:49;100824.50;;;26.99;20.41
54321;BME280;40219;55.838;-4.266;2022-07-01T12:05:17;100823.75;;;27.20;20.54
54321;BME280;40219;55.838;-4.266;2022-07-01T12:07:45;100821.94;;;26.55;20.71
54321;BME280;40219;55.838;-4.266;2022-07-01T12:10:14;100819.52;;;26.27;21.22
54321;BME280;40219;55.838;-4.266;2022-07-01T12:12:42;100820.28;;;25.94;21.77
54321;BME280;40219;55.838;-4.266;2022-07-01T12:15:14;100822.60;;;25.80;22.01
54321;BME280;40219;55.838;-4.266;2022-07-01T12:17:41;100815.41;;;25.21;22.36
54321;BME280;40219;55.838;-4.266;2022-07-01T12:20:09;100815.51;;;25.31;22.64
54321;BME280;40219;55.838;-4.266;2022-07-01T12:22:37;100816.60;;;25.34;22.75
54321;BME280;40219;55.838;-4.266;2022-07-01T12:25:07;100817.25;;;25.35;23.07
54321;BME280;40219;55.838;-4.266;2022-07-01T12:27:36;100824.58;;;25.57;22.63
54321;BME280;40219;55.838;-4.266;2022-07-01T12:30:05;100828.99;;;25.02;23.16
54321;BME280;40219;55.838;-4.266;2022-07-01T12:32:36;100824.01;;;25.08;22.87
54321;BME280;40219;55.838;-4.266;2022-07-01T12:35:05;100830.06;;;25.10;22.95
54321;BME280;40219;55.838;-4.266;2022-07-01T12:37:34;100830.95;;;25.27;23.18
54321;BME280;40219;55.838;-4.266;2022-07-01T12:40:04;100830.34;;;25.75;22.99
54321;BME280;40219;55.838;-4.266;2022-07-01T12:42:33;100831.84;;;25.95;22.41
54321;BME280;40219;55.838;-4.266;2022-07-01T12:45:03;100834.93;;;25.95;22.51
54321;BME280;40219;55.838;-4.266;2022-07-01T12:47:32;100846.97;;;25.75;22.09